createdAt,value
2017-05-18T00:00:04.459Z,14.41
2017-05-18T00:00:08.541Z,14.41
2017-05-18T00:00:12.973Z,14.41
2017-05-18T00:00:17.283Z,14.44
2017-05-18T00:00:21.600Z,14.46
2017-05-18T00:00:26.027Z,14.42
2017-05-18T00:00:30.450Z,14.39
2017-05-18T00:00:34.883Z,14.46
2017-05-18T00:00:39.319Z,14.42
2017-05-18T00:00:43.757Z,14.38
2017-05-18T00:00:48.186Z,14.44
2017-05-18T00:00:52.626Z,14.41
2017-05-18T00:00:57.057Z,14.44
2017-05-18T00:01:01.742Z,14.42
2017-05-18T00:01:06.189Z,14.36
2017-05-18T00:01:10.641Z,14.42
2017-05-18T00:01:14.836Z,14.38
2017-05-18T00:01:19.149Z,14.42
2017-05-18T00:01:23.582Z,14.41
2017-05-18T00:01:27.889Z,14.41
2017-05-18T00:01:32.313Z,14.44
2017-05-18T00:01:36.751Z,14.44
2017-05-18T00:01:41.232Z,14.38
2017-05-18T00:01:45.659Z,14.38
2017-05-18T00:01:50.088Z,14.41
2017-05-18T00:01:54.527Z,14.42
2017-05-18T00:01:58.837Z,14.48
2017-05-18T00:02:03.266Z,14.49
2017-05-18T00:02:07.456Z,14.39
2017-05-18T00:02:11.653Z,14.46
2017-05-18T00:02:15.734Z,14.44
2017-05-18T00:02:20.159Z,14.44
2017-05-18T00:02:24.464Z,14.41
2017-05-18T00:02:28.887Z,14.38
2017-05-18T00:02:33.337Z,14.45
2017-05-18T00:02:37.770Z,14.39
2017-05-18T00:02:42.204Z,14.45
2017-05-18T00:02:46.635Z,14.45
2017-05-18T00:02:51.081Z,14.31
2017-05-18T00:02:55.523Z,14.46
2017-05-18T00:02:59.952Z,14.38
2017-05-18T00:03:04.579Z,14.45
2017-05-18T00:03:09.013Z,14.44
2017-05-18T00:03:13.443Z,14.36
2017-05-18T00:03:17.764Z,14.42
2017-05-18T00:03:22.251Z,14.44
2017-05-18T00:03:26.675Z,14.41
2017-05-18T00:03:31.104Z,14.35
2017-05-18T00:03:35.566Z,14.46
2017-05-18T00:03:39.993Z,14.46
2017-05-18T00:03:44.428Z,14.41
2017-05-18T00:03:48.870Z,14.45
2017-05-18T00:03:53.364Z,14.42
2017-05-18T00:03:57.799Z,14.41
2017-05-18T00:04:02.335Z,14.44
2017-05-18T00:04:06.660Z,14.42
2017-05-18T00:04:10.986Z,14.46
2017-05-18T00:04:15.435Z,14.44
2017-05-18T00:04:19.860Z,14.39
2017-05-18T00:04:24.290Z,14.46
2017-05-18T00:04:28.717Z,14.39
2017-05-18T00:04:32.918Z,14.44
2017-05-18T00:04:37.284Z,14.42
2017-05-18T00:04:41.709Z,14.48
2017-05-18T00:04:45.901Z,14.44
2017-05-18T00:04:50.337Z,14.44
2017-05-18T00:04:54.802Z,14.34
2017-05-18T00:04:59.117Z,14.44
2017-05-18T00:05:03.774Z,14.42
2017-05-18T00:05:08.197Z,14.39
2017-05-18T00:05:12.631Z,14.45
2017-05-18T00:05:16.942Z,14.46
2017-05-18T00:05:21.251Z,14.38
2017-05-18T00:05:25.684Z,14.39
2017-05-18T00:05:30.115Z,14.42
2017-05-18T00:05:34.539Z,14.44
2017-05-18T00:05:38.974Z,14.44
2017-05-18T00:05:43.408Z,14.45
2017-05-18T00:05:47.616Z,14.41
2017-05-18T00:05:52.044Z,14.44
2017-05-18T00:05:56.487Z,14.39
2017-05-18T00:06:00.920Z,14.41
2017-05-18T00:06:05.599Z,14.48
2017-05-18T00:06:09.908Z,14.44
2017-05-18T00:06:14.222Z,14.42
2017-05-18T00:06:18.652Z,14.39
2017-05-18T00:06:22.968Z,14.41
2017-05-18T00:06:27.407Z,14.41
2017-05-18T00:06:31.836Z,14.39
2017-05-18T00:06:36.264Z,14.41
2017-05-18T00:06:40.577Z,14.41
2017-05-18T00:06:45.016Z,14.35
2017-05-18T00:06:49.439Z,14.42
2017-05-18T00:06:53.874Z,14.44
2017-05-18T00:06:58.235Z,14.41
2017-05-18T00:07:02.675Z,14.44
2017-05-18T00:07:06.870Z,14.41
2017-05-18T00:07:11.181Z,14.38
2017-05-18T00:07:15.618Z,14.39
2017-05-18T00:07:20.048Z,14.36
2017-05-18T00:07:24.478Z,14.36
2017-05-18T00:07:28.910Z,14.38
2017-05-18T00:07:33.352Z,14.34
2017-05-18T00:07:37.557Z,14.38
2017-05-18T00:07:41.987Z,14.29
2017-05-18T00:07:46.419Z,14.3
2017-05-18T00:07:50.902Z,14.29
2017-05-18T00:07:55.341Z,14.36
2017-05-18T00:07:59.769Z,14.31
2017-05-18T00:08:04.134Z,14.31
2017-05-18T00:08:08.326Z,14.31
2017-05-18T00:08:12.760Z,14.26
2017-05-18T00:08:17.195Z,14.39
2017-05-18T00:08:21.634Z,14.36
2017-05-18T00:08:25.967Z,14.3
2017-05-18T00:08:30.395Z,14.35
2017-05-18T00:08:34.834Z,14.38
2017-05-18T00:08:39.261Z,14.26
2017-05-18T00:08:43.693Z,14.26
2017-05-18T00:08:48.126Z,14.3
2017-05-18T00:08:52.556Z,14.26
2017-05-18T00:08:56.996Z,14.27
2017-05-18T00:09:01.310Z,14.29
2017-05-18T00:09:05.741Z,14.29
2017-05-18T00:09:10.172Z,14.3
2017-05-18T00:09:14.606Z,14.29
2017-05-18T00:09:18.808Z,14.29
2017-05-18T00:09:23.006Z,14.3
2017-05-18T00:09:27.315Z,14.31
2017-05-18T00:09:31.280Z,14.31
2017-05-18T00:09:35.713Z,14.24
2017-05-18T00:09:40.029Z,14.29
2017-05-18T00:09:44.504Z,14.26
2017-05-18T00:09:48.933Z,14.26
2017-05-18T00:09:53.365Z,14.31
2017-05-18T00:09:57.810Z,14.29
2017-05-18T00:10:02.298Z,14.27
2017-05-18T00:10:06.610Z,14.2
2017-05-18T00:10:10.932Z,14.27
2017-05-18T00:10:15.246Z,14.26
2017-05-18T00:10:19.447Z,14.26
2017-05-18T00:10:23.763Z,14.3
2017-05-18T00:10:27.961Z,14.26
2017-05-18T00:10:32.155Z,14.3
2017-05-18T00:10:36.472Z,14.26
2017-05-18T00:10:40.660Z,14.26
2017-05-18T00:10:45.096Z,14.26
2017-05-18T00:10:49.531Z,14.26
2017-05-18T00:10:53.957Z,14.3
2017-05-18T00:10:58.392Z,14.26
2017-05-18T00:11:02.877Z,14.3
2017-05-18T00:11:06.953Z,14.31
2017-05-18T00:11:11.387Z,14.34
2017-05-18T00:11:15.825Z,14.23
2017-05-18T00:11:20.254Z,14.29
2017-05-18T00:11:24.686Z,14.29
2017-05-18T00:11:28.997Z,14.26
2017-05-18T00:11:33.310Z,14.23
2017-05-18T00:11:37.627Z,14.27
2017-05-18T00:11:42.054Z,14.26
2017-05-18T00:11:46.479Z,14.26
2017-05-18T00:11:50.913Z,14.3
2017-05-18T00:11:55.337Z,14.27
2017-05-18T00:11:59.658Z,14.23
2017-05-18T00:12:04.149Z,14.27
2017-05-18T00:12:08.228Z,14.27
2017-05-18T00:12:12.655Z,14.27
2017-05-18T00:12:16.962Z,14.26
2017-05-18T00:12:21.393Z,14.27
2017-05-18T00:12:25.830Z,14.35
2017-05-18T00:12:30.263Z,14.29
2017-05-18T00:12:34.695Z,14.29
2017-05-18T00:12:39.139Z,14.29
2017-05-18T00:12:43.571Z,14.34
2017-05-18T00:12:47.999Z,14.26
2017-05-18T00:12:52.316Z,14.27
2017-05-18T00:12:56.643Z,14.3
2017-05-18T00:13:01.077Z,14.27
2017-05-18T00:13:05.516Z,14.27
2017-05-18T00:13:09.947Z,14.24
2017-05-18T00:13:14.148Z,14.29
2017-05-18T00:13:18.572Z,14.27
2017-05-18T00:13:23.008Z,14.23
2017-05-18T00:13:27.460Z,14.27
2017-05-18T00:13:31.767Z,14.26
2017-05-18T00:13:36.080Z,14.27
2017-05-18T00:13:40.523Z,14.29
2017-05-18T00:13:44.971Z,14.26
2017-05-18T00:13:49.399Z,14.31
2017-05-18T00:13:54.089Z,14.26
2017-05-18T00:13:58.538Z,14.26
2017-05-18T00:14:02.969Z,14.29
2017-05-18T00:14:07.398Z,14.23
2017-05-18T00:14:11.475Z,14.29
2017-05-18T00:14:15.799Z,14.31
2017-05-18T00:14:20.236Z,14.24
2017-05-18T00:14:24.675Z,14.27
2017-05-18T00:14:28.989Z,14.3
2017-05-18T00:14:33.355Z,14.23
2017-05-18T00:14:37.783Z,14.29
2017-05-18T00:14:42.209Z,14.31
2017-05-18T00:14:46.646Z,14.27
2017-05-18T00:14:50.852Z,14.31
2017-05-18T00:14:55.288Z,14.23
2017-05-18T00:14:59.491Z,14.27
2017-05-18T00:15:03.939Z,14.26
2017-05-18T00:15:08.366Z,14.27
2017-05-18T00:15:12.561Z,14.3
2017-05-18T00:15:16.867Z,14.29
2017-05-18T00:15:21.301Z,14.21
2017-05-18T00:15:25.746Z,14.26
2017-05-18T00:15:30.056Z,14.29
2017-05-18T00:15:34.498Z,14.27
2017-05-18T00:15:38.984Z,14.23
2017-05-18T00:15:43.413Z,14.24
2017-05-18T00:15:47.847Z,14.21
2017-05-18T00:15:52.217Z,14.23
2017-05-18T00:15:56.645Z,14.2
2017-05-18T00:16:00.956Z,14.21
2017-05-18T00:16:05.440Z,14.21
2017-05-18T00:16:09.635Z,14.27
2017-05-18T00:16:13.944Z,14.23
2017-05-18T00:16:18.380Z,14.26
2017-05-18T00:16:22.695Z,14.31
2017-05-18T00:16:27.126Z,14.35
2017-05-18T00:16:31.552Z,14.23
2017-05-18T00:16:35.974Z,14.3
2017-05-18T00:16:40.421Z,14.24
2017-05-18T00:16:44.843Z,14.26
2017-05-18T00:16:49.275Z,14.21
2017-05-18T00:16:53.585Z,14.26
2017-05-18T00:16:58.023Z,14.27
2017-05-18T00:17:02.553Z,14.31
2017-05-18T00:17:06.977Z,14.23
2017-05-18T00:17:11.294Z,14.3
2017-05-18T00:17:15.605Z,14.34
2017-05-18T00:17:20.038Z,14.24
2017-05-18T00:17:24.466Z,14.2
2017-05-18T00:17:28.901Z,14.31
2017-05-18T00:17:33.340Z,14.24
2017-05-18T00:17:37.724Z,14.23
2017-05-18T00:17:42.164Z,14.19
2017-05-18T00:17:46.609Z,14.24
2017-05-18T00:17:51.042Z,14.16
2017-05-18T00:17:55.473Z,14.3
2017-05-18T00:17:59.800Z,14.3
2017-05-18T00:18:04.539Z,14.26
2017-05-18T00:18:08.850Z,14.2
2017-05-18T00:18:13.048Z,14.21
2017-05-18T00:18:17.477Z,14.26
2017-05-18T00:18:21.798Z,14.21
2017-05-18T00:18:26.237Z,14.23
2017-05-18T00:18:30.668Z,14.19
2017-05-18T00:18:35.099Z,14.26
2017-05-18T00:18:39.526Z,14.23
2017-05-18T00:18:43.973Z,14.21
2017-05-18T00:18:48.402Z,14.2
2017-05-18T00:18:52.828Z,14.23
2017-05-18T00:18:57.275Z,14.16
2017-05-18T00:19:01.787Z,14.23
2017-05-18T00:19:06.293Z,14.19
2017-05-18T00:19:10.484Z,14.2
2017-05-18T00:19:14.801Z,14.21
2017-05-18T00:19:19.117Z,14.23
2017-05-18T00:19:23.318Z,14.13
2017-05-18T00:19:27.756Z,14.19
2017-05-18T00:19:32.077Z,14.26
2017-05-18T00:19:36.399Z,14.23
2017-05-18T00:19:40.833Z,14.24
2017-05-18T00:19:45.257Z,14.21
2017-05-18T00:19:49.562Z,14.13
2017-05-18T00:19:54.001Z,14.19
2017-05-18T00:19:58.436Z,14.13
2017-05-18T00:20:02.919Z,14.12
2017-05-18T00:20:07.117Z,14.26
2017-05-18T00:20:11.546Z,14.13
2017-05-18T00:20:15.624Z,14.21
2017-05-18T00:20:20.056Z,14.12
2017-05-18T00:20:24.484Z,14.17
2017-05-18T00:20:28.791Z,14.2
2017-05-18T00:20:33.227Z,14.13
2017-05-18T00:20:37.654Z,14.16
2017-05-18T00:20:42.085Z,14.21
2017-05-18T00:20:46.509Z,14.2
2017-05-18T00:20:50.933Z,14.13
2017-05-18T00:20:55.365Z,14.17
2017-05-18T00:20:59.737Z,14.11
2017-05-18T00:21:04.166Z,14.12
2017-05-18T00:21:08.600Z,14.17
2017-05-18T00:21:12.792Z,14.06
2017-05-18T00:21:17.104Z,14.06
2017-05-18T00:21:21.424Z,14.16
2017-05-18T00:21:25.854Z,14.08
2017-05-18T00:21:30.169Z,14.13
2017-05-18T00:21:34.595Z,14.08
2017-05-18T00:21:38.910Z,14.04
2017-05-18T00:21:43.341Z,14.12
2017-05-18T00:21:47.773Z,14.04
2017-05-18T00:21:52.208Z,14.11
2017-05-18T00:21:56.633Z,14.04
2017-05-18T00:22:00.706Z,14.02
2017-05-18T00:22:05.071Z,14.04
2017-05-18T00:22:09.263Z,14.02
2017-05-18T00:22:13.570Z,14.13
2017-05-18T00:22:17.885Z,14.06
2017-05-18T00:22:22.370Z,13.98
2017-05-18T00:22:26.790Z,14.01
2017-05-18T00:22:31.218Z,14.12
2017-05-18T00:22:35.531Z,14.06
2017-05-18T00:22:39.962Z,14.11
2017-05-18T00:22:44.386Z,14.04
2017-05-18T00:22:48.812Z,14.12
2017-05-18T00:22:53.242Z,14.13
2017-05-18T00:22:57.685Z,14.11
2017-05-18T00:23:02.336Z,14.04
2017-05-18T00:23:06.779Z,14.08
2017-05-18T00:23:11.100Z,14.12
2017-05-18T00:23:15.536Z,14.11
2017-05-18T00:23:19.908Z,14.11
2017-05-18T00:23:24.338Z,14.05
2017-05-18T00:23:28.767Z,14.05
2017-05-18T00:23:33.145Z,14.05
2017-05-18T00:23:37.338Z,14.08
2017-05-18T00:23:41.777Z,14.08
2017-05-18T00:23:46.209Z,14.08
2017-05-18T00:23:50.642Z,14.08
2017-05-18T00:23:55.073Z,14.04
2017-05-18T00:23:59.400Z,14.02
2017-05-18T00:24:03.858Z,14.05
2017-05-18T00:24:08.291Z,13.94
2017-05-18T00:24:12.613Z,14.02
2017-05-18T00:24:16.700Z,14.04
2017-05-18T00:24:21.129Z,14.01
2017-05-18T00:24:25.557Z,14.05
2017-05-18T00:24:29.989Z,14.05
2017-05-18T00:24:34.308Z,14.04
2017-05-18T00:24:38.623Z,13.99
2017-05-18T00:24:43.066Z,14.02
2017-05-18T00:24:47.494Z,14.05
2017-05-18T00:24:51.918Z,14.04
2017-05-18T00:24:56.359Z,14.04
2017-05-18T00:25:00.794Z,14.02
2017-05-18T00:25:05.233Z,14.06
2017-05-18T00:25:09.434Z,13.99
2017-05-18T00:25:13.743Z,14.05
2017-05-18T00:25:18.181Z,14.02
2017-05-18T00:25:22.669Z,14.01
2017-05-18T00:25:26.861Z,14.02
2017-05-18T00:25:31.288Z,14.02
2017-05-18T00:25:35.757Z,14.08
2017-05-18T00:25:40.194Z,13.98
2017-05-18T00:25:44.628Z,14.04
2017-05-18T00:25:49.074Z,14.04
2017-05-18T00:25:53.499Z,13.93
2017-05-18T00:25:57.808Z,14.02
2017-05-18T00:26:02.270Z,13.99
2017-05-18T00:26:06.714Z,14.02
2017-05-18T00:26:11.032Z,14.05
2017-05-18T00:26:15.392Z,13.99
2017-05-18T00:26:19.707Z,14.02
2017-05-18T00:26:23.895Z,13.99
2017-05-18T00:26:28.204Z,13.99
2017-05-18T00:26:32.512Z,13.99
2017-05-18T00:26:36.953Z,14.05
2017-05-18T00:26:41.376Z,14.01
2017-05-18T00:26:45.803Z,13.88
2017-05-18T00:26:50.239Z,14.01
2017-05-18T00:26:54.665Z,13.99
2017-05-18T00:26:58.974Z,14.02
2017-05-18T00:27:03.776Z,14.02
2017-05-18T00:27:08.202Z,14.01
2017-05-18T00:27:12.510Z,14.05
2017-05-18T00:27:16.826Z,13.9
2017-05-18T00:27:21.148Z,13.93
2017-05-18T00:27:25.582Z,13.93
2017-05-18T00:27:30.008Z,13.99
2017-05-18T00:27:34.438Z,14.01
2017-05-18T00:27:38.885Z,13.98
2017-05-18T00:27:43.386Z,14.02
2017-05-18T00:27:47.817Z,14.02
2017-05-18T00:27:52.257Z,14.05
2017-05-18T00:27:56.691Z,14.01
2017-05-18T00:28:01.124Z,13.96
2017-05-18T00:28:05.428Z,13.91
2017-05-18T00:28:09.735Z,14.09
2017-05-18T00:28:14.164Z,14.01
2017-05-18T00:28:18.597Z,14.01
2017-05-18T00:28:22.907Z,14.02
2017-05-18T00:28:27.342Z,13.99
2017-05-18T00:28:31.776Z,14.11
2017-05-18T00:28:36.280Z,14.01
2017-05-18T00:28:40.708Z,14.01
2017-05-18T00:28:45.144Z,14.01
2017-05-18T00:28:49.573Z,14.01
2017-05-18T00:28:54.007Z,13.9
2017-05-18T00:28:58.437Z,13.99
2017-05-18T00:29:03.028Z,13.93
2017-05-18T00:29:07.464Z,13.99
2017-05-18T00:29:11.898Z,13.96
2017-05-18T00:29:16.101Z,13.99
2017-05-18T00:29:20.417Z,14.01
2017-05-18T00:29:24.729Z,14.04
2017-05-18T00:29:29.056Z,13.99
2017-05-18T00:29:33.485Z,13.96
2017-05-18T00:29:37.914Z,13.93
2017-05-18T00:29:42.348Z,13.99
2017-05-18T00:29:46.784Z,13.99
2017-05-18T00:29:51.219Z,13.93
2017-05-18T00:29:55.654Z,13.99
2017-05-18T00:29:59.961Z,13.99
2017-05-18T00:30:04.399Z,14.02
2017-05-18T00:30:08.653Z,13.93
2017-05-18T00:30:13.085Z,13.94
2017-05-18T00:30:17.539Z,13.96
2017-05-18T00:30:21.853Z,13.96
2017-05-18T00:30:26.276Z,13.96
2017-05-18T00:30:30.710Z,13.96
2017-05-18T00:30:35.136Z,13.99
2017-05-18T00:30:39.448Z,14.04
2017-05-18T00:30:43.884Z,13.96
2017-05-18T00:30:48.320Z,13.98
2017-05-18T00:30:52.752Z,13.93
2017-05-18T00:30:57.066Z,13.96
2017-05-18T00:31:01.500Z,13.99
2017-05-18T00:31:06.297Z,13.96
2017-05-18T00:31:10.725Z,13.86
2017-05-18T00:31:14.923Z,13.91
2017-05-18T00:31:19.241Z,14.05
2017-05-18T00:31:23.672Z,13.96
2017-05-18T00:31:27.981Z,13.96
2017-05-18T00:31:32.295Z,14.02
2017-05-18T00:31:36.732Z,13.99
2017-05-18T00:31:41.163Z,14.04
2017-05-18T00:31:45.603Z,14.04
2017-05-18T00:31:50.035Z,13.99
2017-05-18T00:31:54.225Z,13.99
2017-05-18T00:31:58.658Z,13.98
2017-05-18T00:32:03.098Z,14.01
2017-05-18T00:32:07.410Z,13.96
2017-05-18T00:32:11.852Z,13.98
2017-05-18T00:32:16.277Z,13.98
2017-05-18T00:32:20.712Z,13.96
2017-05-18T00:32:25.025Z,13.96
2017-05-18T00:32:29.455Z,14.01
2017-05-18T00:32:33.764Z,14.01
2017-05-18T00:32:38.078Z,13.96
2017-05-18T00:32:42.592Z,14.02
2017-05-18T00:32:47.026Z,13.93
2017-05-18T00:32:51.470Z,13.94
2017-05-18T00:32:55.910Z,13.96
2017-05-18T00:33:00.339Z,13.93
2017-05-18T00:33:04.763Z,14.04
2017-05-18T00:33:09.070Z,13.98
2017-05-18T00:33:13.384Z,13.96
2017-05-18T00:33:17.816Z,13.96
2017-05-18T00:33:22.127Z,13.91
2017-05-18T00:33:26.563Z,13.96
2017-05-18T00:33:31.000Z,13.96
2017-05-18T00:33:35.454Z,13.93
2017-05-18T00:33:39.765Z,13.94
2017-05-18T00:33:44.200Z,13.91
2017-05-18T00:33:48.647Z,13.98
2017-05-18T00:33:52.861Z,13.93
2017-05-18T00:33:57.251Z,13.93
2017-05-18T00:34:01.681Z,13.93
2017-05-18T00:34:06.110Z,13.88
2017-05-18T00:34:10.468Z,13.86
2017-05-18T00:34:14.796Z,13.91
2017-05-18T00:34:19.239Z,13.98
2017-05-18T00:34:23.554Z,13.84
2017-05-18T00:34:28.047Z,13.96
2017-05-18T00:34:32.492Z,13.91
2017-05-18T00:34:36.918Z,13.87
2017-05-18T00:34:41.353Z,13.93
2017-05-18T00:34:45.783Z,13.94
2017-05-18T00:34:50.208Z,13.83
2017-05-18T00:34:54.403Z,14.01
2017-05-18T00:34:58.730Z,13.94
2017-05-18T00:35:03.180Z,13.91
2017-05-18T00:35:07.609Z,13.93
2017-05-18T00:35:12.043Z,13.9
2017-05-18T00:35:16.407Z,13.91
2017-05-18T00:35:20.833Z,13.88
2017-05-18T00:35:25.260Z,13.93
2017-05-18T00:35:29.694Z,13.84
2017-05-18T00:35:34.009Z,13.88
2017-05-18T00:35:38.205Z,13.91
2017-05-18T00:35:42.634Z,13.88
2017-05-18T00:35:47.072Z,13.88
2017-05-18T00:35:51.549Z,13.86
2017-05-18T00:35:55.978Z,13.88
2017-05-18T00:36:00.416Z,13.88
2017-05-18T00:36:04.905Z,13.88
2017-05-18T00:36:09.211Z,13.96
2017-05-18T00:36:13.644Z,13.88
2017-05-18T00:36:17.847Z,13.87
2017-05-18T00:36:22.165Z,13.88
2017-05-18T00:36:26.589Z,13.87
2017-05-18T00:36:30.906Z,13.87
2017-05-18T00:36:35.336Z,13.9
2017-05-18T00:36:39.771Z,13.94
2017-05-18T00:36:44.079Z,13.9
2017-05-18T00:36:48.512Z,13.84
2017-05-18T00:36:52.943Z,13.83
2017-05-18T00:36:57.251Z,13.8
2017-05-18T00:37:01.676Z,13.87
2017-05-18T00:37:06.087Z,13.9
2017-05-18T00:37:10.394Z,13.87
2017-05-18T00:37:14.818Z,13.87
2017-05-18T00:37:19.130Z,13.9
2017-05-18T00:37:23.558Z,13.9
2017-05-18T00:37:27.982Z,13.86
2017-05-18T00:37:32.299Z,13.84
2017-05-18T00:37:36.619Z,13.87
2017-05-18T00:37:41.048Z,13.88
2017-05-18T00:37:45.481Z,13.88
2017-05-18T00:37:49.976Z,13.88
2017-05-18T00:37:54.413Z,13.91
2017-05-18T00:37:58.750Z,13.83
2017-05-18T00:38:03.068Z,13.83
2017-05-18T00:38:07.501Z,13.86
2017-05-18T00:38:11.930Z,13.84
2017-05-18T00:38:16.239Z,13.88
2017-05-18T00:38:20.552Z,13.86
2017-05-18T00:38:24.997Z,13.91
2017-05-18T00:38:29.318Z,13.86
2017-05-18T00:38:33.756Z,13.84
2017-05-18T00:38:38.070Z,13.84
2017-05-18T00:38:42.497Z,13.86
2017-05-18T00:38:46.932Z,13.9
2017-05-18T00:38:51.267Z,13.8
2017-05-18T00:38:55.703Z,13.87
2017-05-18T00:39:00.324Z,13.87
2017-05-18T00:39:04.767Z,13.9
2017-05-18T00:39:09.190Z,13.84
2017-05-18T00:39:13.625Z,13.86
2017-05-18T00:39:17.818Z,13.9
2017-05-18T00:39:22.131Z,13.87
2017-05-18T00:39:26.325Z,13.88
2017-05-18T00:39:30.758Z,13.88
2017-05-18T00:39:35.182Z,13.83
2017-05-18T00:39:39.495Z,13.86
2017-05-18T00:39:43.927Z,13.88
2017-05-18T00:39:48.238Z,13.8
2017-05-18T00:39:52.551Z,13.81
2017-05-18T00:39:56.911Z,13.9
2017-05-18T00:40:01.339Z,13.86
2017-05-18T00:40:06.040Z,13.88
2017-05-18T00:40:10.496Z,13.88
2017-05-18T00:40:14.683Z,13.86
2017-05-18T00:40:18.996Z,13.88
2017-05-18T00:40:23.437Z,13.84
2017-05-18T00:40:27.747Z,13.84
2017-05-18T00:40:32.176Z,13.83
2017-05-18T00:40:36.606Z,13.83
2017-05-18T00:40:41.042Z,13.88
2017-05-18T00:40:45.463Z,13.83
2017-05-18T00:40:49.892Z,13.86
2017-05-18T00:40:54.323Z,13.84
2017-05-18T00:40:58.761Z,13.86
2017-05-18T00:41:03.186Z,13.84
2017-05-18T00:41:07.614Z,13.86
2017-05-18T00:41:12.039Z,13.87
2017-05-18T00:41:16.352Z,13.9
2017-05-18T00:41:20.782Z,13.8
2017-05-18T00:41:25.207Z,13.83
2017-05-18T00:41:29.521Z,13.86
2017-05-18T00:41:33.954Z,13.83
2017-05-18T00:41:38.385Z,13.81
2017-05-18T00:41:42.812Z,13.81
2017-05-18T00:41:47.238Z,13.9
2017-05-18T00:41:51.668Z,13.87
2017-05-18T00:41:56.096Z,13.79
2017-05-18T00:42:00.520Z,13.86
2017-05-18T00:42:04.837Z,13.84
2017-05-18T00:42:09.148Z,13.83
2017-05-18T00:42:13.571Z,13.81
2017-05-18T00:42:17.539Z,13.73
2017-05-18T00:42:21.971Z,13.8
2017-05-18T00:42:26.287Z,13.84
2017-05-18T00:42:30.600Z,13.88
2017-05-18T00:42:35.090Z,13.81
2017-05-18T00:42:39.523Z,13.84
2017-05-18T00:42:43.952Z,13.86
2017-05-18T00:42:48.382Z,13.83
2017-05-18T00:42:52.833Z,13.79
2017-05-18T00:42:57.144Z,13.76
2017-05-18T00:43:01.582Z,13.79
2017-05-18T00:43:06.091Z,13.84
2017-05-18T00:43:10.419Z,13.81
2017-05-18T00:43:14.858Z,13.76
2017-05-18T00:43:19.170Z,13.76
2017-05-18T00:43:23.487Z,13.76
2017-05-18T00:43:27.915Z,13.83
2017-05-18T00:43:32.352Z,13.81
2017-05-18T00:43:36.796Z,13.8
2017-05-18T00:43:41.220Z,13.73
2017-05-18T00:43:45.650Z,13.8
2017-05-18T00:43:50.087Z,13.76
2017-05-18T00:43:54.528Z,13.76
2017-05-18T00:43:58.610Z,13.73
2017-05-18T00:44:03.289Z,13.73
2017-05-18T00:44:07.727Z,13.75
2017-05-18T00:44:12.162Z,13.72
2017-05-18T00:44:16.349Z,13.84
2017-05-18T00:44:20.776Z,13.79
2017-05-18T00:44:25.168Z,13.79
2017-05-18T00:44:29.485Z,13.71
2017-05-18T00:44:33.915Z,13.72
2017-05-18T00:44:38.350Z,13.76
2017-05-18T00:44:42.781Z,13.73
2017-05-18T00:44:47.232Z,13.75
2017-05-18T00:44:51.658Z,13.71
2017-05-18T00:44:56.091Z,13.68
2017-05-18T00:45:00.472Z,13.71
2017-05-18T00:45:04.780Z,13.71
2017-05-18T00:45:09.213Z,13.73
2017-05-18T00:45:13.645Z,13.75
2017-05-18T00:45:17.969Z,13.71
2017-05-18T00:45:22.271Z,13.71
2017-05-18T00:45:26.697Z,13.75
2017-05-18T00:45:31.127Z,13.79
2017-05-18T00:45:35.569Z,13.73
2017-05-18T00:45:39.993Z,13.63
2017-05-18T00:45:44.425Z,13.76
2017-05-18T00:45:48.514Z,13.71
2017-05-18T00:45:52.831Z,13.68
2017-05-18T00:45:57.270Z,13.75
2017-05-18T00:46:01.704Z,13.73
2017-05-18T00:46:06.013Z,13.68
2017-05-18T00:46:10.449Z,13.76
2017-05-18T00:46:14.820Z,13.72
2017-05-18T00:46:19.310Z,13.71
2017-05-18T00:46:23.739Z,13.81
2017-05-18T00:46:28.048Z,13.76
2017-05-18T00:46:32.473Z,13.75
2017-05-18T00:46:36.961Z,13.71
2017-05-18T00:46:41.040Z,13.66
2017-05-18T00:46:45.471Z,13.71
2017-05-18T00:46:49.896Z,13.71
2017-05-18T00:46:54.335Z,13.73
2017-05-18T00:46:58.644Z,13.73
2017-05-18T00:47:03.373Z,13.65
2017-05-18T00:47:07.689Z,13.71
2017-05-18T00:47:12.126Z,13.68
2017-05-18T00:47:16.436Z,13.69
2017-05-18T00:47:20.859Z,13.69
2017-05-18T00:47:25.168Z,13.73
2017-05-18T00:47:29.596Z,13.69
2017-05-18T00:47:34.037Z,13.66
2017-05-18T00:47:38.471Z,13.65
2017-05-18T00:47:42.915Z,13.72
2017-05-18T00:47:47.355Z,13.71
2017-05-18T00:47:51.794Z,13.73
2017-05-18T00:47:56.233Z,13.73
2017-05-18T00:48:00.671Z,13.69
2017-05-18T00:48:05.124Z,13.72
2017-05-18T00:48:09.323Z,13.73
2017-05-18T00:48:13.793Z,13.69
2017-05-18T00:48:18.106Z,13.73
2017-05-18T00:48:22.422Z,13.61
2017-05-18T00:48:26.507Z,13.66
2017-05-18T00:48:30.704Z,13.63
2017-05-18T00:48:35.140Z,13.71
2017-05-18T00:48:39.471Z,13.65
2017-05-18T00:48:43.902Z,13.65
2017-05-18T00:48:48.327Z,13.62
2017-05-18T00:48:52.757Z,13.63
2017-05-18T00:48:57.074Z,13.65
2017-05-18T00:49:01.569Z,13.62
2017-05-18T00:49:06.151Z,13.66
2017-05-18T00:49:10.471Z,13.62
2017-05-18T00:49:14.800Z,13.59
2017-05-18T00:49:19.004Z,13.63
2017-05-18T00:49:23.443Z,13.62
2017-05-18T00:49:27.883Z,13.62
2017-05-18T00:49:32.307Z,13.69
2017-05-18T00:49:36.741Z,13.61
2017-05-18T00:49:41.230Z,13.55
2017-05-18T00:49:45.663Z,13.61
2017-05-18T00:49:49.985Z,13.59
2017-05-18T00:49:54.418Z,13.62
2017-05-18T00:49:58.862Z,13.54
2017-05-18T00:50:03.546Z,13.63
2017-05-18T00:50:07.622Z,13.66
2017-05-18T00:50:11.698Z,13.63
2017-05-18T00:50:16.003Z,13.61
2017-05-18T00:50:20.486Z,13.65
2017-05-18T00:50:24.925Z,13.61
2017-05-18T00:50:29.239Z,13.57
2017-05-18T00:50:33.666Z,13.55
2017-05-18T00:50:37.974Z,13.61
2017-05-18T00:50:42.295Z,13.61
2017-05-18T00:50:46.724Z,13.54
2017-05-18T00:50:51.149Z,13.63
2017-05-18T00:50:55.581Z,13.54
2017-05-18T00:50:59.946Z,13.57
2017-05-18T00:51:04.730Z,13.57
2017-05-18T00:51:09.040Z,13.57
2017-05-18T00:51:13.243Z,13.54
2017-05-18T00:51:17.673Z,13.61
2017-05-18T00:51:21.983Z,13.54
2017-05-18T00:51:26.460Z,13.61
2017-05-18T00:51:30.773Z,13.55
2017-05-18T00:51:35.200Z,13.61
2017-05-18T00:51:39.634Z,13.55
2017-05-18T00:51:44.066Z,13.57
2017-05-18T00:51:48.496Z,13.51
2017-05-18T00:51:52.928Z,13.55
2017-05-18T00:51:57.352Z,13.59
2017-05-18T00:52:01.777Z,13.55
2017-05-18T00:52:06.115Z,13.62
2017-05-18T00:52:10.484Z,13.55
2017-05-18T00:52:14.801Z,13.55
2017-05-18T00:52:19.234Z,13.5
2017-05-18T00:52:23.678Z,13.59
2017-05-18T00:52:28.109Z,13.55
2017-05-18T00:52:32.414Z,13.54
2017-05-18T00:52:36.853Z,13.55
2017-05-18T00:52:41.293Z,13.55
2017-05-18T00:52:45.722Z,13.55
2017-05-18T00:52:50.039Z,13.55
2017-05-18T00:52:54.351Z,13.47
2017-05-18T00:52:58.719Z,13.48
2017-05-18T00:53:03.455Z,13.54
2017-05-18T00:53:07.881Z,13.47
2017-05-18T00:53:12.247Z,13.48
2017-05-18T00:53:16.441Z,13.55
2017-05-18T00:53:20.871Z,13.51
2017-05-18T00:53:25.310Z,13.46
2017-05-18T00:53:29.743Z,13.54
2017-05-18T00:53:33.937Z,13.5
2017-05-18T00:53:38.320Z,13.55
2017-05-18T00:53:42.755Z,13.47
2017-05-18T00:53:47.066Z,13.47
2017-05-18T00:53:51.505Z,13.51
2017-05-18T00:53:55.818Z,13.43
2017-05-18T00:54:00.242Z,13.54
2017-05-18T00:54:04.726Z,13.54
2017-05-18T00:54:09.165Z,13.51
2017-05-18T00:54:13.473Z,13.51
2017-05-18T00:54:17.671Z,13.5
2017-05-18T00:54:22.095Z,13.46
2017-05-18T00:54:26.522Z,13.53
2017-05-18T00:54:30.948Z,13.53
2017-05-18T00:54:35.265Z,13.53
2017-05-18T00:54:39.693Z,13.46
2017-05-18T00:54:44.017Z,13.53
2017-05-18T00:54:48.453Z,13.55
2017-05-18T00:54:52.878Z,13.48
2017-05-18T00:54:57.318Z,13.47
2017-05-18T00:55:01.791Z,13.51
2017-05-18T00:55:06.223Z,13.51
2017-05-18T00:55:10.656Z,13.51
2017-05-18T00:55:14.847Z,13.46
2017-05-18T00:55:19.331Z,13.53
2017-05-18T00:55:23.638Z,13.5
2017-05-18T00:55:28.074Z,13.54
2017-05-18T00:55:32.383Z,13.46
2017-05-18T00:55:36.816Z,13.5
2017-05-18T00:55:41.248Z,13.48
2017-05-18T00:55:45.680Z,13.43
2017-05-18T00:55:50.106Z,13.5
2017-05-18T00:55:54.550Z,13.53
2017-05-18T00:55:58.979Z,13.5
2017-05-18T00:56:03.657Z,13.54
2017-05-18T00:56:07.973Z,13.5
2017-05-18T00:56:12.407Z,13.48
2017-05-18T00:56:16.833Z,13.51
2017-05-18T00:56:21.267Z,13.48
2017-05-18T00:56:25.584Z,13.5
2017-05-18T00:56:30.009Z,13.46
2017-05-18T00:56:34.435Z,13.46
2017-05-18T00:56:38.872Z,13.5
2017-05-18T00:56:43.305Z,13.5